Home > Products > Valid Products > TAF

000
FTUS43 KGLD 250520
TAFMCK
TAF
KMCK 250520Z 2506/2606 VRB05KT P6SM SKC
     FM251900 14011KT P6SM SKC
     FM252300 12006KT P6SM SKC=



000
FTUS43 KGLD 250520
TAFGLD
TAF
KGLD 250520Z 2506/2606 VRB05KT P6SM SKC
     FM251900 16012G22KT P6SM SKC
     FM252300 16008KT P6SM SKC=



000
FTUS43 KGLD 242343
TAFMCK
TAF
KMCK 242343Z 2500/2524 28005KT P6SM SKC
     FM251900 14011KT P6SM SKC=



000
FTUS43 KGLD 242343
TAFGLD
TAF
KGLD 242343Z 2500/2524 20005KT P6SM SKC
     FM251900 16011KT P6SM SKC=



000
FTUS43 KGLD 241720
TAFGLD
TAF
KGLD 241720Z 2418/2518 29006KT P6SM FEW250
     FM242100 VRB05KT P6SM FEW250
     FM250500 23006KT P6SM SKC=



000
FTUS43 KGLD 241720
TAFMCK
TAF
KMCK 241720Z 2418/2518 VRB05KT P6SM SCT250
     FM250400 25004KT P6SM SKC=



000
FTUS43 KGLD 241120
TAFGLD
TAF
KGLD 241120Z 2412/2512 25010KT P6SM SCT220
     FM241700 31007KT P6SM FEW220
     FM242100 VRB04KT P6SM SKC
     FM250200 16005KT P6SM SKC
     FM250700 21006KT P6SM SKC
     FM251100 27006KT P6SM SKC=



000
FTUS43 KGLD 241120
TAFMCK
TAF
KMCK 241120Z 2412/2512 26007KT P6SM BKN220
     FM241700 30009KT P6SM FEW220
     FM250000 VRB03KT P6SM SKC=



000
FTUS43 KGLD 240520
TAFMCK
TAF
KMCK 240520Z 2406/2506 22007KT 6SM BR FEW150
     FM241000 26007KT P6SM SCT150
     FM241700 30008KT P6SM FEW150 SCT250
     FM242300 VRB03KT P6SM SKC=



000
FTUS43 KGLD 240520
TAFGLD
TAF
KGLD 240520Z 2406/2506 22012KT P6SM BKN150
     FM240900 25010KT P6SM BKN150
     FM241700 32007KT P6SM FEW200
     FM242000 VRB04KT P6SM SKC
     FM242300 11005KT P6SM SKC
     FM250300 15006KT P6SM SKC=



000
FTUS43 KGLD 232339
TAFGLD
TAF
KGLD 232339Z 2400/2424 17009KT P6SM FEW200
     FM240700 22009KT P6SM FEW150 SCT200
     FM241500 27009KT P6SM FEW200=



000
FTUS43 KGLD 232339
TAFMCK
TAF
KMCK 232339Z 2400/2424 17007KT P6SM FEW200
     FM240700 24007KT P6SM FEW200
     FM241600 28009KT P6SM SCT200=



000
FTUS43 KGLD 231724
TAFGLD
TAF
KGLD 231724Z 2318/2418 19008KT P6SM FEW150
     FM240300 22010KT P6SM FEW150 SCT200
     FM241100 26009KT P6SM SCT200=



000
FTUS43 KGLD 231724
TAFMCK
TAF
KMCK 231724Z 2318/2418 20007KT P6SM FEW180
     FM240100 20005KT P6SM SCT180
     FM240800 25007KT P6SM BKN200=



000
FTUS43 KGLD 231421 AAA
TAFMCK
TAF AMD
KMCK 231421Z 2314/2412 VRB04KT 1/4SM FG VV002
      TEMPO 2314/2316 3SM BR SCT004
     FM231600 VRB04KT P6SM SKC
     FM231900 19008KT P6SM FEW070
     FM240800 24007KT P6SM FEW150=



000
FTUS43 KGLD 231120
TAFGLD
TAF
KGLD 231120Z 2312/2412 VRB05KT P6SM SCT080
     FM231800 18008KT P6SM FEW080
     FM240600 22009KT P6SM FEW150 SCT200
     FM241100 26009KT P6SM FEW150=



000
FTUS43 KGLD 231120
TAFMCK
TAF
KMCK 231120Z 2312/2412 VRB04KT 1/4SM FG VV002
      TEMPO 2312/2314 3SM BR SCT004
     FM231400 VRB04KT P6SM SKC
     FM231900 19008KT P6SM FEW070
     FM240800 24007KT P6SM FEW150=



000
FTUS43 KGLD 230918 AAB
TAFMCK
TAF AMD
KMCK 230918Z 2309/2406 VRB05KT 1/2SM FG BKN001
     FM231400 VRB05KT P6SM SCT120 SCT200
     FM231900 18011KT P6SM SCT200
     FM240000 18007KT P6SM SCT250=



000
FTUS43 KGLD 230738 AAA
TAFMCK
TAF AMD
KMCK 230738Z 2308/2406 VRB05KT P6SM SKC
     FM230900 VRB05KT 1/2SM FG BKN005
     FM231400 VRB05KT P6SM SCT120 SCT200
     FM231900 18011KT P6SM SCT200
     FM240000 18007KT P6SM SCT250=



000
FTUS43 KGLD 230520
TAFGLD
TAF
KGLD 230520Z 2306/2406 VRB05KT P6SM SKC
     FM231000 VRB05KT P6SM SCT120
      TEMPO 2310/2313 4SM BR SCT120
     FM231600 17012KT P6SM SCT120 SCT200
     FM240000 18010KT P6SM SCT250=



000
FTUS43 KGLD 230520
TAFMCK
TAF
KMCK 230520Z 2306/2406 VRB05KT P6SM SKC
     FM230800 VRB05KT 1/2SM FG BKN005 BKN120
     FM231400 VRB05KT P6SM SCT120 SCT200
     FM231900 18011KT P6SM SCT200
     FM240000 18007KT P6SM SCT250=



000
FTUS43 KGLD 222320
TAFGLD
TAF
KGLD 222320Z 2300/2324 VRB06KT P6SM SKC
     FM231000 VRB05KT P6SM SCT120
      TEMPO 2310/2313 4SM BR SCT005 SCT120
     FM231600 17012KT P6SM SCT120 SCT200=



000
FTUS43 KGLD 222320
TAFMCK
TAF
KMCK 222320Z 2300/2324 VRB06KT P6SM SKC
     FM230900 VRB05KT 2SM BR SCT005 SCT120
     FM231400 VRB05KT P6SM SCT120 SCT200
     FM231900 22011KT P6SM SCT200=



000
FTUS43 KGLD 221724
TAFMCK
TAF
KMCK 221724Z 2218/2318 36008KT P6SM SCT120
     FM222200 VRB05KT P6SM SCT150
     FM230900 VRB05KT 2SM BR SCT003
     FM231300 22004KT P6SM SCT200=



000
FTUS43 KGLD 221724
TAFGLD
TAF
KGLD 221724Z 2218/2318 36010G16KT P6SM SCT100
     FM230000 VRB05KT P6SM SKC
     FM231000 VRB05KT 4SM BR SCT005
     FM231300 23010KT P6SM SCT200=



000
FTUS43 KGLD 221724
TAFGLD
TAF
KGLD 221724Z 2218/2318 36010G16KT P6SM SCT100
     FM230000 VRB05KT P6SM SKC
     FM231000 VRB05KT 4SM BR SCT005
     FM231300 23010KT P6SM SCT200=



000
FTUS43 KGLD 221724
TAFMCK
TAF
KMCK 221724Z 2218/2318 36008KT P6SM SCT120
     FM222200 VRB05KT P6SM SCT150
     FM230900 VRB05KT 2SM BR SCT003
     FM231300 22004KT P6SM SCT200=



000
FTUS43 KGLD 221641 AAA
TAFGLD
TAF AMD
KGLD 221641Z 2217/2312 36010KT P6SM SCT060
     FM230000 VRB05KT P6SM SKC
     FM231000 VRB05KT 4SM BR SCT005=



000
FTUS43 KGLD 221641 AAA
TAFGLD
TAF AMD
KGLD 221641Z 2217/2312 36010KT P6SM SCT060
     FM230000 VRB05KT P6SM SKC
     FM231000 VRB05KT 4SM BR SCT005=



000
FTUS43 KGLD 221130
TAFMCK
TAF
KMCK 221130Z 2212/2312 19008KT P6SM OVC150
     FM221500 21008KT P6SM VCSH BKN040 OVC100
     FM221900 36008KT P6SM VCTS BKN060CB BKN120
     FM222200 VRB05KT P6SM SCT150
     FM230900 VRB05KT 2SM BR SCT003=



000
FTUS43 KGLD 221130
TAFGLD
TAF
KGLD 221130Z 2212/2312 23009KT P6SM OVC150
     FM221400 35010KT P6SM VCSH SCT060 OVC100
     FM221900 01010KT P6SM SCT150
     FM230000 VRB05KT P6SM SKC
     FM231000 VRB05KT 4SM BR SCT005=



    US Dept of Commerce
    National Oceanic and Atmospheric Administration
    National Weather Service
    1325 East West Highway
    Silver Spring, MD 20910
    Page Author: NWS Internet Services Team
Disclaimer
Information Quality
Credits
Glossary
Privacy Policy
Freedom of Information Act (FOIA)
About Us
Career Opportunities